sensor_id;sensor_type;location;lat;lon;timestamp;P1;durP1;ratioP1;P2;durP2;ratioP2
36221;SDS011;22266;52.340;4.962;2023-07-24T00:00:47;4.00;;;2.50;;
36221;SDS011;22266;52.340;4.962;2023-07-24T00:03:14;3.50;;;3.50;;
36221;SDS011;22266;52.340;4.962;2023-07-24T00:05:40;4.75;;;4.00;;
36221;SDS011;22266;52.340;4.962;2023-07-24T00:08:07;3.00;;;3.00;;
36221;SDS011;22266;52.340;4.962;2023-07-24T00:10:33;2.75;;;2.25;;
36221;SDS011;22266;52.340;4.962;2023-07-24T00:13:00;6.00;;;5.50;;
36221;SDS011;22266;52.340;4.962;2023-07-24T00:15:27;5.75;;;5.00;;
36221;SDS011;22266;52.340;4.962;2023-07-24T00:17:54;2.75;;;2.75;;
36221;SDS011;22266;52.340;4.962;2023-07-24T00:20:20;3.75;;;3.75;;
36221;SDS011;22266;52.340;4.962;2023-07-24T00:22:47;7.75;;;5.00;;
36221;SDS011;22266;52.340;4.962;2023-07-24T00:25:13;4.00;;;4.00;;
36221;SDS011;22266;52.340;4.962;2023-07-24T00:27:40;8.75;;;6.50;;
36221;SDS011;22266;52.340;4.962;2023-07-24T00:30:06;10.00;;;6.75;;
36221;SDS011;22266;52.340;4.962;2023-07-24T00:32:33;9.50;;;6.00;;
36221;SDS011;22266;52.340;4.962;2023-07-24T00:35:01;3.75;;;3.75;;
36221;SDS011;22266;52.340;4.962;2023-07-24T00:37:28;6.25;;;4.50;;
36221;SDS011;22266;52.340;4.962;2023-07-24T00:39:54;5.50;;;5.50;;
36221;SDS011;22266;52.340;4.962;2023-07-24T00:42:22;3.00;;;3.00;;
36221;SDS011;22266;52.340;4.962;2023-07-24T00:44:49;6.50;;;4.00;;
36221;SDS011;22266;52.340;4.962;2023-07-24T00:47:16;3.00;;;3.00;;
36221;SDS011;22266;52.340;4.962;2023-07-24T00:49:45;4.75;;;4.75;;
36221;SDS011;22266;52.340;4.962;2023-07-24T00:52:12;4.00;;;4.00;;
36221;SDS011;22266;52.340;4.962;2023-07-24T00:54:39;4.00;;;3.75;;
36221;SDS011;22266;52.340;4.962;2023-07-24T00:57:06;6.50;;;4.50;;
36221;SDS011;22266;52.340;4.962;2023-07-24T00:59:34;2.50;;;2.50;;
36221;SDS011;22266;52.340;4.962;2023-07-24T01:02:02;5.25;;;3.50;;
36221;SDS011;22266;52.340;4.962;2023-07-24T01:04:28;2.00;;;2.00;;
36221;SDS011;22266;52.340;4.962;2023-07-24T01:06:56;3.00;;;3.00;;
36221;SDS011;22266;52.340;4.962;2023-07-24T01:09:23;5.00;;;5.00;;
36221;SDS011;22266;52.340;4.962;2023-07-24T01:12:00;10.50;;;7.75;;
36221;SDS011;22266;52.340;4.962;2023-07-24T01:14:45;6.75;;;4.50;;
36221;SDS011;22266;52.340;4.962;2023-07-24T01:17:17;5.75;;;5.00;;
36221;SDS011;22266;52.340;4.962;2023-07-24T01:19:52;6.25;;;5.50;;
36221;SDS011;22266;52.340;4.962;2023-07-24T01:22:32;4.00;;;3.00;;
36221;SDS011;22266;52.340;4.962;2023-07-24T01:25:23;5.00;;;5.00;;
36221;SDS011;22266;52.340;4.962;2023-07-24T01:28:06;3.00;;;3.00;;
36221;SDS011;22266;52.340;4.962;2023-07-24T01:30:34;3.00;;;3.00;;
36221;SDS011;22266;52.340;4.962;2023-07-24T01:33:01;6.50;;;4.50;;
36221;SDS011;22266;52.340;4.962;2023-07-24T01:35:28;5.75;;;4.25;;
36221;SDS011;22266;52.340;4.962;2023-07-24T01:37:56;3.25;;;3.00;;
36221;SDS011;22266;52.340;4.962;2023-07-24T01:40:24;4.25;;;4.25;;
36221;SDS011;22266;52.340;4.962;2023-07-24T01:42:51;5.25;;;5.00;;
36221;SDS011;22266;52.340;4.962;2023-07-24T01:45:18;5.50;;;2.75;;
36221;SDS011;22266;52.340;4.962;2023-07-24T01:47:44;9.67;;;9.67;;
36221;SDS011;22266;52.340;4.962;2023-07-24T01:50:11;5.25;;;4.50;;
36221;SDS011;22266;52.340;4.962;2023-07-24T01:52:38;4.25;;;4.25;;
36221;SDS011;22266;52.340;4.962;2023-07-24T01:55:04;5.25;;;4.25;;
36221;SDS011;22266;52.340;4.962;2023-07-24T01:57:31;7.50;;;5.25;;
36221;SDS011;22266;52.340;4.962;2023-07-24T01:59:58;3.00;;;3.00;;
36221;SDS011;22266;52.340;4.962;2023-07-24T02:02:24;3.50;;;3.50;;
36221;SDS011;22266;52.340;4.962;2023-07-24T02:04:51;4.50;;;3.00;;
36221;SDS011;22266;52.340;4.962;2023-07-24T02:07:17;8.25;;;6.25;;
36221;SDS011;22266;52.340;4.962;2023-07-24T02:09:44;4.75;;;4.75;;
36221;SDS011;22266;52.340;4.962;2023-07-24T02:12:11;5.00;;;4.00;;
36221;SDS011;22266;52.340;4.962;2023-07-24T02:14:37;11.33;;;6.67;;
36221;SDS011;22266;52.340;4.962;2023-07-24T02:17:04;3.50;;;3.50;;
36221;SDS011;22266;52.340;4.962;2023-07-24T02:19:30;8.00;;;7.00;;
36221;SDS011;22266;52.340;4.962;2023-07-24T02:21:57;6.00;;;6.00;;
36221;SDS011;22266;52.340;4.962;2023-07-24T02:24:24;3.00;;;3.00;;
36221;SDS011;22266;52.340;4.962;2023-07-24T02:26:50;3.00;;;3.00;;
36221;SDS011;22266;52.340;4.962;2023-07-24T02:29:17;7.00;;;5.25;;
36221;SDS011;22266;52.340;4.962;2023-07-24T02:31:43;2.25;;;2.25;;
36221;SDS011;22266;52.340;4.962;2023-07-24T02:34:10;8.33;;;6.33;;
36221;SDS011;22266;52.340;4.962;2023-07-24T02:36:39;6.25;;;4.50;;
36221;SDS011;22266;52.340;4.962;2023-07-24T02:39:08;5.00;;;4.00;;
36221;SDS011;22266;52.340;4.962;2023-07-24T02:41:34;5.75;;;4.50;;
36221;SDS011;22266;52.340;4.962;2023-07-24T02:44:02;6.75;;;6.25;;
36221;SDS011;22266;52.340;4.962;2023-07-24T02:46:29;5.75;;;5.75;;
36221;SDS011;22266;52.340;4.962;2023-07-24T02:48:57;4.25;;;4.25;;
36221;SDS011;22266;52.340;4.962;2023-07-24T02:51:24;7.25;;;5.00;;
36221;SDS011;22266;52.340;4.962;2023-07-24T02:53:50;5.00;;;3.75;;
36221;SDS011;22266;52.340;4.962;2023-07-24T02:56:18;7.50;;;7.00;;
36221;SDS011;22266;52.340;4.962;2023-07-24T02:58:45;4.00;;;4.00;;
36221;SDS011;22266;52.340;4.962;2023-07-24T03:01:11;5.25;;;4.75;;
36221;SDS011;22266;52.340;4.962;2023-07-24T03:03:40;6.00;;;6.00;;
36221;SDS011;22266;52.340;4.962;2023-07-24T03:06:08;4.50;;;4.50;;
36221;SDS011;22266;52.340;4.962;2023-07-24T03:08:34;4.00;;;4.00;;
36221;SDS011;22266;52.340;4.962;2023-07-24T03:11:04;4.50;;;3.25;;
36221;SDS011;22266;52.340;4.962;2023-07-24T03:13:31;5.00;;;4.00;;
36221;SDS011;22266;52.340;4.962;2023-07-24T03:15:57;5.33;;;4.00;;
36221;SDS011;22266;52.340;4.962;2023-07-24T03:18:24;8.50;;;6.75;;
36221;SDS011;22266;52.340;4.962;2023-07-24T03:20:52;7.00;;;7.00;;
36221;SDS011;22266;52.340;4.962;2023-07-24T03:23:18;6.50;;;6.00;;
36221;SDS011;22266;52.340;4.962;2023-07-24T03:25:46;5.75;;;4.00;;
36221;SDS011;22266;52.340;4.962;2023-07-24T03:28:13;8.50;;;6.25;;
36221;SDS011;22266;52.340;4.962;2023-07-24T03:30:39;6.67;;;6.67;;
36221;SDS011;22266;52.340;4.962;2023-07-24T03:33:06;7.00;;;4.50;;
36221;SDS011;22266;52.340;4.962;2023-07-24T03:35:33;9.00;;;7.00;;
36221;SDS011;22266;52.340;4.962;2023-07-24T03:38:00;5.25;;;5.25;;
36221;SDS011;22266;52.340;4.962;2023-07-24T03:40:27;6.00;;;5.00;;
36221;SDS011;22266;52.340;4.962;2023-07-24T03:42:53;4.75;;;3.75;;
36221;SDS011;22266;52.340;4.962;2023-07-24T03:45:21;5.50;;;5.00;;
36221;SDS011;22266;52.340;4.962;2023-07-24T03:47:47;5.00;;;5.00;;
36221;SDS011;22266;52.340;4.962;2023-07-24T03:50:14;4.75;;;4.00;;
36221;SDS011;22266;52.340;4.962;2023-07-24T03:52:41;5.00;;;4.00;;
36221;SDS011;22266;52.340;4.962;2023-07-24T03:55:07;7.25;;;7.25;;
36221;SDS011;22266;52.340;4.962;2023-07-24T03:57:34;7.25;;;4.75;;
36221;SDS011;22266;52.340;4.962;2023-07-24T04:00:01;7.00;;;7.00;;
36221;SDS011;22266;52.340;4.962;2023-07-24T04:02:37;4.50;;;4.50;;
36221;SDS011;22266;52.340;4.962;2023-07-24T04:05:06;8.00;;;6.25;;
36221;SDS011;22266;52.340;4.962;2023-07-24T04:07:33;5.50;;;5.50;;
36221;SDS011;22266;52.340;4.962;2023-07-24T04:09:59;5.00;;;5.00;;
36221;SDS011;22266;52.340;4.962;2023-07-24T04:12:26;3.75;;;3.75;;
36221;SDS011;22266;52.340;4.962;2023-07-24T04:14:52;5.00;;;5.00;;
36221;SDS011;22266;52.340;4.962;2023-07-24T04:17:19;5.67;;;5.67;;
36221;SDS011;22266;52.340;4.962;2023-07-24T04:19:47;7.00;;;3.75;;
36221;SDS011;22266;52.340;4.962;2023-07-24T04:22:13;4.00;;;4.00;;
36221;SDS011;22266;52.340;4.962;2023-07-24T04:24:40;3.00;;;3.00;;
36221;SDS011;22266;52.340;4.962;2023-07-24T04:27:06;5.50;;;5.50;;
36221;SDS011;22266;52.340;4.962;2023-07-24T04:29:32;6.50;;;6.00;;
36221;SDS011;22266;52.340;4.962;2023-07-24T04:31:59;5.25;;;4.75;;
36221;SDS011;22266;52.340;4.962;2023-07-24T04:34:26;2.75;;;2.25;;
36221;SDS011;22266;52.340;4.962;2023-07-24T04:36:52;4.00;;;4.00;;
36221;SDS011;22266;52.340;4.962;2023-07-24T04:39:18;4.00;;;4.00;;
36221;SDS011;22266;52.340;4.962;2023-07-24T04:41:45;2.50;;;2.50;;
36221;SDS011;22266;52.340;4.962;2023-07-24T04:44:12;4.50;;;3.00;;
36221;SDS011;22266;52.340;4.962;2023-07-24T04:46:38;5.00;;;4.25;;
36221;SDS011;22266;52.340;4.962;2023-07-24T04:49:05;4.67;;;4.33;;
36221;SDS011;22266;52.340;4.962;2023-07-24T04:51:31;6.00;;;4.75;;
36221;SDS011;22266;52.340;4.962;2023-07-24T04:54:01;6.25;;;6.00;;
36221;SDS011;22266;52.340;4.962;2023-07-24T04:56:28;5.75;;;3.25;;
36221;SDS011;22266;52.340;4.962;2023-07-24T04:58:55;4.00;;;3.00;;
36221;SDS011;22266;52.340;4.962;2023-07-24T05:01:21;5.25;;;3.50;;
36221;SDS011;22266;52.340;4.962;2023-07-24T05:03:48;6.75;;;5.50;;
36221;SDS011;22266;52.340;4.962;2023-07-24T05:06:14;6.75;;;6.75;;
36221;SDS011;22266;52.340;4.962;2023-07-24T05:08:41;6.00;;;5.50;;
36221;SDS011;22266;52.340;4.962;2023-07-24T05:11:08;3.75;;;3.50;;
36221;SDS011;22266;52.340;4.962;2023-07-24T05:13:35;3.25;;;3.25;;
36221;SDS011;22266;52.340;4.962;2023-07-24T05:16:01;5.25;;;3.75;;
36221;SDS011;22266;52.340;4.962;2023-07-24T05:18:28;3.00;;;3.00;;
36221;SDS011;22266;52.340;4.962;2023-07-24T05:20:54;2.50;;;2.50;;
36221;SDS011;22266;52.340;4.962;2023-07-24T05:23:21;2.50;;;2.50;;
36221;SDS011;22266;52.340;4.962;2023-07-24T05:25:55;3.25;;;2.75;;
36221;SDS011;22266;52.340;4.962;2023-07-24T05:28:23;3.25;;;3.25;;
36221;SDS011;22266;52.340;4.962;2023-07-24T05:30:49;5.00;;;5.00;;
36221;SDS011;22266;52.340;4.962;2023-07-24T05:33:16;6.00;;;4.00;;
36221;SDS011;22266;52.340;4.962;2023-07-24T05:35:43;7.00;;;6.00;;
36221;SDS011;22266;52.340;4.962;2023-07-24T05:38:09;4.50;;;4.50;;
36221;SDS011;22266;52.340;4.962;2023-07-24T05:40:36;6.33;;;6.00;;
36221;SDS011;22266;52.340;4.962;2023-07-24T05:43:02;4.25;;;4.25;;
36221;SDS011;22266;52.340;4.962;2023-07-24T05:45:30;5.00;;;4.00;;
36221;SDS011;22266;52.340;4.962;2023-07-24T05:47:56;7.00;;;5.50;;
36221;SDS011;22266;52.340;4.962;2023-07-24T05:50:24;5.00;;;4.00;;
36221;SDS011;22266;52.340;4.962;2023-07-24T05:52:50;4.75;;;3.25;;
36221;SDS011;22266;52.340;4.962;2023-07-24T05:55:17;3.25;;;3.25;;
36221;SDS011;22266;52.340;4.962;2023-07-24T05:57:44;4.75;;;3.50;;
36221;SDS011;22266;52.340;4.962;2023-07-24T06:00:11;7.50;;;6.00;;
36221;SDS011;22266;52.340;4.962;2023-07-24T06:02:37;6.25;;;5.50;;
36221;SDS011;22266;52.340;4.962;2023-07-24T06:05:04;7.50;;;7.00;;
36221;SDS011;22266;52.340;4.962;2023-07-24T06:07:31;7.00;;;5.00;;
36221;SDS011;22266;52.340;4.962;2023-07-24T06:09:57;9.33;;;7.00;;
36221;SDS011;22266;52.340;4.962;2023-07-24T06:12:23;9.00;;;7.67;;
36221;SDS011;22266;52.340;4.962;2023-07-24T06:14:50;8.67;;;8.00;;
36221;SDS011;22266;52.340;4.962;2023-07-24T06:17:17;8.67;;;7.67;;
36221;SDS011;22266;52.340;4.962;2023-07-24T06:19:43;6.50;;;6.00;;
36221;SDS011;22266;52.340;4.962;2023-07-24T06:22:10;7.25;;;4.00;;
36221;SDS011;22266;52.340;4.962;2023-07-24T06:24:36;7.67;;;7.67;;
36221;SDS011;22266;52.340;4.962;2023-07-24T06:27:04;6.67;;;6.67;;
36221;SDS011;22266;52.340;4.962;2023-07-24T06:29:33;5.00;;;5.00;;
36221;SDS011;22266;52.340;4.962;2023-07-24T06:31:59;7.00;;;6.75;;
36221;SDS011;22266;52.340;4.962;2023-07-24T06:34:26;8.00;;;6.00;;
36221;SDS011;22266;52.340;4.962;2023-07-24T06:36:53;7.67;;;7.33;;
36221;SDS011;22266;52.340;4.962;2023-07-24T06:39:19;8.67;;;7.00;;
36221;SDS011;22266;52.340;4.962;2023-07-24T06:41:46;6.50;;;6.50;;
36221;SDS011;22266;52.340;4.962;2023-07-24T06:44:13;4.75;;;4.75;;
36221;SDS011;22266;52.340;4.962;2023-07-24T06:46:39;10.00;;;6.00;;
36221;SDS011;22266;52.340;4.962;2023-07-24T06:49:06;4.75;;;4.75;;
36221;SDS011;22266;52.340;4.962;2023-07-24T06:51:32;7.50;;;7.50;;
36221;SDS011;22266;52.340;4.962;2023-07-24T06:53:59;7.50;;;7.50;;
36221;SDS011;22266;52.340;4.962;2023-07-24T06:56:25;10.25;;;7.50;;
36221;SDS011;22266;52.340;4.962;2023-07-24T06:58:52;7.00;;;4.75;;
36221;SDS011;22266;52.340;4.962;2023-07-24T07:01:19;6.00;;;5.75;;
36221;SDS011;22266;52.340;4.962;2023-07-24T07:03:46;10.50;;;9.75;;
36221;SDS011;22266;52.340;4.962;2023-07-24T07:06:12;10.00;;;6.75;;
36221;SDS011;22266;52.340;4.962;2023-07-24T07:08:42;5.75;;;5.75;;
36221;SDS011;22266;52.340;4.962;2023-07-24T07:11:08;7.25;;;7.25;;
36221;SDS011;22266;52.340;4.962;2023-07-24T07:13:35;9.75;;;5.00;;
36221;SDS011;22266;52.340;4.962;2023-07-24T07:16:01;5.00;;;4.50;;
36221;SDS011;22266;52.340;4.962;2023-07-24T07:18:28;6.00;;;4.25;;
36221;SDS011;22266;52.340;4.962;2023-07-24T07:20:55;6.75;;;6.00;;
36221;SDS011;22266;52.340;4.962;2023-07-24T07:23:21;7.25;;;7.25;;
36221;SDS011;22266;52.340;4.962;2023-07-24T07:25:50;6.00;;;6.00;;
36221;SDS011;22266;52.340;4.962;2023-07-24T07:28:17;3.75;;;3.75;;
36221;SDS011;22266;52.340;4.962;2023-07-24T07:30:45;10.50;;;9.25;;
36221;SDS011;22266;52.340;4.962;2023-07-24T07:33:13;7.75;;;5.00;;
36221;SDS011;22266;52.340;4.962;2023-07-24T07:35:39;8.00;;;7.50;;
36221;SDS011;22266;52.340;4.962;2023-07-24T07:38:06;8.25;;;7.50;;
36221;SDS011;22266;52.340;4.962;2023-07-24T07:40:32;8.75;;;8.00;;
36221;SDS011;22266;52.340;4.962;2023-07-24T07:42:59;8.00;;;5.25;;
36221;SDS011;22266;52.340;4.962;2023-07-24T07:45:25;6.75;;;6.75;;
36221;SDS011;22266;52.340;4.962;2023-07-24T07:47:52;9.00;;;8.25;;
36221;SDS011;22266;52.340;4.962;2023-07-24T07:50:19;10.00;;;5.00;;
36221;SDS011;22266;52.340;4.962;2023-07-24T07:52:49;11.00;;;8.00;;
36221;SDS011;22266;52.340;4.962;2023-07-24T07:55:18;6.25;;;5.75;;
36221;SDS011;22266;52.340;4.962;2023-07-24T07:57:45;7.00;;;7.00;;
36221;SDS011;22266;52.340;4.962;2023-07-24T08:00:11;9.00;;;6.00;;
36221;SDS011;22266;52.340;4.962;2023-07-24T08:02:38;4.50;;;4.50;;
36221;SDS011;22266;52.340;4.962;2023-07-24T08:05:08;7.25;;;6.25;;
36221;SDS011;22266;52.340;4.962;2023-07-24T08:07:43;4.50;;;4.25;;
36221;SDS011;22266;52.340;4.962;2023-07-24T08:10:09;10.00;;;9.00;;
36221;SDS011;22266;52.340;4.962;2023-07-24T08:12:36;6.00;;;5.75;;
36221;SDS011;22266;52.340;4.962;2023-07-24T08:15:03;7.25;;;7.25;;
36221;SDS011;22266;52.340;4.962;2023-07-24T08:17:29;6.75;;;6.50;;
36221;SDS011;22266;52.340;4.962;2023-07-24T08:19:56;7.00;;;5.25;;
36221;SDS011;22266;52.340;4.962;2023-07-24T08:22:23;7.25;;;6.25;;
36221;SDS011;22266;52.340;4.962;2023-07-24T08:24:50;6.00;;;6.00;;
36221;SDS011;22266;52.340;4.962;2023-07-24T08:27:19;6.25;;;6.25;;
36221;SDS011;22266;52.340;4.962;2023-07-24T08:29:50;8.00;;;6.00;;
36221;SDS011;22266;52.340;4.962;2023-07-24T08:32:17;6.00;;;6.00;;
36221;SDS011;22266;52.340;4.962;2023-07-24T08:34:44;8.50;;;7.00;;
36221;SDS011;22266;52.340;4.962;2023-07-24T08:37:11;7.00;;;5.50;;
36221;SDS011;22266;52.340;4.962;2023-07-24T08:39:37;7.00;;;7.00;;
36221;SDS011;22266;52.340;4.962;2023-07-24T08:42:11;7.50;;;7.50;;
36221;SDS011;22266;52.340;4.962;2023-07-24T08:44:38;8.75;;;8.25;;
36221;SDS011;22266;52.340;4.962;2023-07-24T08:47:06;5.25;;;4.25;;
36221;SDS011;22266;52.340;4.962;2023-07-24T08:49:36;6.50;;;6.25;;
36221;SDS011;22266;52.340;4.962;2023-07-24T08:52:04;7.00;;;7.00;;
36221;SDS011;22266;52.340;4.962;2023-07-24T08:54:31;6.50;;;6.50;;
36221;SDS011;22266;52.340;4.962;2023-07-24T08:56:58;7.25;;;7.25;;
36221;SDS011;22266;52.340;4.962;2023-07-24T08:59:26;5.00;;;4.75;;
36221;SDS011;22266;52.340;4.962;2023-07-24T09:01:53;6.50;;;6.50;;
36221;SDS011;22266;52.340;4.962;2023-07-24T09:04:19;6.50;;;6.50;;
36221;SDS011;22266;52.340;4.962;2023-07-24T09:06:46;8.00;;;8.00;;
36221;SDS011;22266;52.340;4.962;2023-07-24T09:09:13;5.75;;;5.75;;
36221;SDS011;22266;52.340;4.962;2023-07-24T09:11:51;8.00;;;7.00;;
36221;SDS011;22266;52.340;4.962;2023-07-24T09:14:29;5.00;;;5.00;;
36221;SDS011;22266;52.340;4.962;2023-07-24T09:17:02;9.00;;;6.75;;
36221;SDS011;22266;52.340;4.962;2023-07-24T09:19:29;4.50;;;4.00;;
36221;SDS011;22266;52.340;4.962;2023-07-24T09:22:07;9.00;;;8.00;;
36221;SDS011;22266;52.340;4.962;2023-07-24T09:24:49;9.75;;;7.75;;
36221;SDS011;22266;52.340;4.962;2023-07-24T09:27:17;7.75;;;7.75;;
36221;SDS011;22266;52.340;4.962;2023-07-24T09:29:45;7.00;;;6.25;;
36221;SDS011;22266;52.340;4.962;2023-07-24T09:32:22;7.75;;;6.25;;
36221;SDS011;22266;52.340;4.962;2023-07-24T09:34:51;7.50;;;7.00;;
36221;SDS011;22266;52.340;4.962;2023-07-24T09:37:24;6.75;;;6.75;;
36221;SDS011;22266;52.340;4.962;2023-07-24T09:39:55;7.00;;;7.00;;
36221;SDS011;22266;52.340;4.962;2023-07-24T09:42:29;9.75;;;8.50;;
36221;SDS011;22266;52.340;4.962;2023-07-24T09:44:57;7.50;;;7.50;;
36221;SDS011;22266;52.340;4.962;2023-07-24T09:47:23;7.25;;;5.00;;
36221;SDS011;22266;52.340;4.962;2023-07-24T09:50:10;8.75;;;8.75;;
36221;SDS011;22266;52.340;4.962;2023-07-24T09:52:37;8.67;;;7.00;;
36221;SDS011;22266;52.340;4.962;2023-07-24T09:55:10;8.00;;;7.25;;
36221;SDS011;22266;52.340;4.962;2023-07-24T09:57:41;4.50;;;4.00;;
36221;SDS011;22266;52.340;4.962;2023-07-24T10:00:11;6.25;;;6.25;;
36221;SDS011;22266;52.340;4.962;2023-07-24T10:02:38;8.00;;;6.00;;
36221;SDS011;22266;52.340;4.962;2023-07-24T10:05:06;6.25;;;6.25;;
36221;SDS011;22266;52.340;4.962;2023-07-24T10:07:33;6.00;;;6.00;;
36221;SDS011;22266;52.340;4.962;2023-07-24T10:10:00;8.25;;;8.25;;
36221;SDS011;22266;52.340;4.962;2023-07-24T10:12:28;9.50;;;8.25;;
36221;SDS011;22266;52.340;4.962;2023-07-24T10:14:56;8.00;;;7.50;;
36221;SDS011;22266;52.340;4.962;2023-07-24T10:17:36;8.75;;;7.00;;
36221;SDS011;22266;52.340;4.962;2023-07-24T10:20:10;7.50;;;6.25;;
36221;SDS011;22266;52.340;4.962;2023-07-24T10:22:42;8.50;;;7.00;;
36221;SDS011;22266;52.340;4.962;2023-07-24T10:25:11;10.50;;;9.00;;
36221;SDS011;22266;52.340;4.962;2023-07-24T10:27:44;6.50;;;4.00;;
36221;SDS011;22266;52.340;4.962;2023-07-24T10:30:12;8.00;;;8.00;;
36221;SDS011;22266;52.340;4.962;2023-07-24T10:33:08;7.00;;;6.50;;
36221;SDS011;22266;52.340;4.962;2023-07-24T10:35:41;8.25;;;7.25;;
36221;SDS011;22266;52.340;4.962;2023-07-24T10:38:10;6.00;;;5.50;;
36221;SDS011;22266;52.340;4.962;2023-07-24T10:40:38;4.00;;;4.00;;
36221;SDS011;22266;52.340;4.962;2023-07-24T10:43:13;6.25;;;6.00;;
36221;SDS011;22266;52.340;4.962;2023-07-24T10:45:51;10.25;;;7.50;;
36221;SDS011;22266;52.340;4.962;2023-07-24T10:48:23;7.25;;;7.25;;
36221;SDS011;22266;52.340;4.962;2023-07-24T10:50:52;8.00;;;5.00;;
36221;SDS011;22266;52.340;4.962;2023-07-24T10:53:21;5.00;;;5.00;;
36221;SDS011;22266;52.340;4.962;2023-07-24T10:55:50;8.50;;;7.00;;
36221;SDS011;22266;52.340;4.962;2023-07-24T10:58:17;5.75;;;5.75;;
36221;SDS011;22266;52.340;4.962;2023-07-24T11:00:44;7.75;;;7.75;;
36221;SDS011;22266;52.340;4.962;2023-07-24T11:03:14;6.50;;;6.50;;
36221;SDS011;22266;52.340;4.962;2023-07-24T11:05:41;7.75;;;6.75;;
36221;SDS011;22266;52.340;4.962;2023-07-24T11:08:10;6.25;;;6.25;;
36221;SDS011;22266;52.340;4.962;2023-07-24T11:10:45;6.00;;;6.00;;
36221;SDS011;22266;52.340;4.962;2023-07-24T11:13:18;6.00;;;6.00;;
36221;SDS011;22266;52.340;4.962;2023-07-24T11:15:47;6.75;;;6.75;;
36221;SDS011;22266;52.340;4.962;2023-07-24T11:18:15;7.25;;;7.25;;
36221;SDS011;22266;52.340;4.962;2023-07-24T11:20:43;6.25;;;4.25;;
36221;SDS011;22266;52.340;4.962;2023-07-24T11:23:12;7.25;;;6.50;;
36221;SDS011;22266;52.340;4.962;2023-07-24T11:25:39;5.50;;;5.50;;
36221;SDS011;22266;52.340;4.962;2023-07-24T11:28:07;8.00;;;8.00;;
36221;SDS011;22266;52.340;4.962;2023-07-24T11:30:34;7.25;;;7.25;;
36221;SDS011;22266;52.340;4.962;2023-07-24T11:33:02;7.00;;;7.00;;
36221;SDS011;22266;52.340;4.962;2023-07-24T11:35:31;5.25;;;5.25;;
36221;SDS011;22266;52.340;4.962;2023-07-24T11:37:59;5.75;;;4.50;;
36221;SDS011;22266;52.340;4.962;2023-07-24T11:40:32;5.75;;;5.75;;
36221;SDS011;22266;52.340;4.962;2023-07-24T11:43:01;5.25;;;4.25;;
36221;SDS011;22266;52.340;4.962;2023-07-24T11:45:31;3.75;;;3.75;;
36221;SDS011;22266;52.340;4.962;2023-07-24T11:48:10;4.00;;;4.00;;
36221;SDS011;22266;52.340;4.962;2023-07-24T11:50:41;6.00;;;6.00;;
36221;SDS011;22266;52.340;4.962;2023-07-24T11:53:46;3.00;;;3.00;;
36221;SDS011;22266;52.340;4.962;2023-07-24T11:56:12;5.50;;;5.50;;
36221;SDS011;22266;52.340;4.962;2023-07-24T11:58:40;4.50;;;2.75;;
36221;SDS011;22266;52.340;4.962;2023-07-24T12:01:07;3.00;;;3.00;;
36221;SDS011;22266;52.340;4.962;2023-07-24T12:03:33;4.00;;;4.00;;
36221;SDS011;22266;52.340;4.962;2023-07-24T12:06:01;3.25;;;3.25;;
36221;SDS011;22266;52.340;4.962;2023-07-24T12:08:32;2.75;;;2.75;;
36221;SDS011;22266;52.340;4.962;2023-07-24T12:11:02;7.75;;;4.00;;
36221;SDS011;22266;52.340;4.962;2023-07-24T12:13:29;2.75;;;2.00;;
36221;SDS011;22266;52.340;4.962;2023-07-24T12:15:55;4.00;;;3.00;;
36221;SDS011;22266;52.340;4.962;2023-07-24T12:18:22;3.25;;;3.00;;
36221;SDS011;22266;52.340;4.962;2023-07-24T12:20:48;2.75;;;2.75;;
36221;SDS011;22266;52.340;4.962;2023-07-24T12:23:15;4.00;;;3.00;;
36221;SDS011;22266;52.340;4.962;2023-07-24T12:25:42;4.00;;;3.50;;
36221;SDS011;22266;52.340;4.962;2023-07-24T12:28:09;4.00;;;2.25;;
36221;SDS011;22266;52.340;4.962;2023-07-24T12:30:35;3.00;;;3.00;;
36221;SDS011;22266;52.340;4.962;2023-07-24T12:33:02;4.00;;;2.25;;
36221;SDS011;22266;52.340;4.962;2023-07-24T12:35:28;3.00;;;2.00;;
36221;SDS011;22266;52.340;4.962;2023-07-24T12:37:55;3.00;;;3.00;;
36221;SDS011;22266;52.340;4.962;2023-07-24T12:40:21;2.75;;;2.25;;
36221;SDS011;22266;52.340;4.962;2023-07-24T12:42:48;2.25;;;2.25;;
36221;SDS011;22266;52.340;4.962;2023-07-24T12:45:15;2.00;;;2.00;;
36221;SDS011;22266;52.340;4.962;2023-07-24T12:47:41;2.25;;;2.25;;
36221;SDS011;22266;52.340;4.962;2023-07-24T12:50:09;1.00;;;1.00;;
36221;SDS011;22266;52.340;4.962;2023-07-24T12:52:35;4.00;;;2.00;;
36221;SDS011;22266;52.340;4.962;2023-07-24T12:55:03;1.00;;;1.00;;
36221;SDS011;22266;52.340;4.962;2023-07-24T12:57:29;1.00;;;1.00;;
36221;SDS011;22266;52.340;4.962;2023-07-24T12:59:56;1.00;;;1.00;;
36221;SDS011;22266;52.340;4.962;2023-07-24T13:02:22;2.25;;;1.00;;
36221;SDS011;22266;52.340;4.962;2023-07-24T13:04:49;1.00;;;1.00;;
36221;SDS011;22266;52.340;4.962;2023-07-24T13:07:16;2.25;;;2.25;;
36221;SDS011;22266;52.340;4.962;2023-07-24T13:09:42;1.25;;;1.25;;
36221;SDS011;22266;52.340;4.962;2023-07-24T13:12:09;2.00;;;2.00;;
36221;SDS011;22266;52.340;4.962;2023-07-24T13:14:36;3.75;;;2.00;;
36221;SDS011;22266;52.340;4.962;2023-07-24T13:17:07;3.00;;;3.00;;
36221;SDS011;22266;52.340;4.962;2023-07-24T13:19:35;5.25;;;4.00;;
36221;SDS011;22266;52.340;4.962;2023-07-24T13:22:01;5.50;;;5.50;;
36221;SDS011;22266;52.340;4.962;2023-07-24T13:24:28;5.50;;;3.50;;
36221;SDS011;22266;52.340;4.962;2023-07-24T13:26:54;3.00;;;2.50;;
36221;SDS011;22266;52.340;4.962;2023-07-24T13:29:21;3.00;;;3.00;;
36221;SDS011;22266;52.340;4.962;2023-07-24T13:31:51;2.50;;;2.50;;
36221;SDS011;22266;52.340;4.962;2023-07-24T13:34:18;2.25;;;2.25;;
36221;SDS011;22266;52.340;4.962;2023-07-24T13:36:46;3.00;;;2.25;;
36221;SDS011;22266;52.340;4.962;2023-07-24T13:39:15;1.25;;;1.25;;
36221;SDS011;22266;52.340;4.962;2023-07-24T13:41:43;2.00;;;2.00;;
36221;SDS011;22266;52.340;4.962;2023-07-24T13:44:09;3.00;;;1.00;;
36221;SDS011;22266;52.340;4.962;2023-07-24T13:46:36;2.75;;;2.75;;
36221;SDS011;22266;52.340;4.962;2023-07-24T13:49:05;1.00;;;1.00;;
36221;SDS011;22266;52.340;4.962;2023-07-24T13:51:32;2.00;;;2.00;;
36221;SDS011;22266;52.340;4.962;2023-07-24T13:53:59;1.25;;;1.25;;
36221;SDS011;22266;52.340;4.962;2023-07-24T13:56:28;0.50;;;0.50;;
36221;SDS011;22266;52.340;4.962;2023-07-24T13:58:56;3.00;;;1.75;;
36221;SDS011;22266;52.340;4.962;2023-07-24T14:01:22;2.50;;;2.50;;
36221;SDS011;22266;52.340;4.962;2023-07-24T14:03:48;2.00;;;2.00;;
36221;SDS011;22266;52.340;4.962;2023-07-24T14:06:16;1.50;;;1.50;;
36221;SDS011;22266;52.340;4.962;2023-07-24T14:08:43;1.00;;;1.00;;
36221;SDS011;22266;52.340;4.962;2023-07-24T14:11:09;1.75;;;1.25;;
36221;SDS011;22266;52.340;4.962;2023-07-24T14:13:36;2.00;;;1.00;;
36221;SDS011;22266;52.340;4.962;2023-07-24T14:16:03;2.00;;;1.00;;
36221;SDS011;22266;52.340;4.962;2023-07-24T14:18:29;0.25;;;0.25;;
36221;SDS011;22266;52.340;4.962;2023-07-24T14:20:56;0.50;;;0.50;;
36221;SDS011;22266;52.340;4.962;2023-07-24T14:23:22;0.00;;;0.00;;
36221;SDS011;22266;52.340;4.962;2023-07-24T14:25:49;0.75;;;0.75;;
36221;SDS011;22266;52.340;4.962;2023-07-24T14:28:18;2.00;;;2.00;;
36221;SDS011;22266;52.340;4.962;2023-07-24T14:30:44;0.75;;;0.75;;
36221;SDS011;22266;52.340;4.962;2023-07-24T14:33:11;2.50;;;1.00;;
36221;SDS011;22266;52.340;4.962;2023-07-24T14:35:37;1.00;;;1.00;;
36221;SDS011;22266;52.340;4.962;2023-07-24T14:38:04;1.00;;;1.00;;
36221;SDS011;22266;52.340;4.962;2023-07-24T14:40:30;0.00;;;0.00;;
36221;SDS011;22266;52.340;4.962;2023-07-24T14:42:57;0.00;;;0.00;;
36221;SDS011;22266;52.340;4.962;2023-07-24T14:45:23;1.00;;;1.00;;
36221;SDS011;22266;52.340;4.962;2023-07-24T14:47:51;0.00;;;0.00;;
36221;SDS011;22266;52.340;4.962;2023-07-24T14:50:17;0.00;;;0.00;;
36221;SDS011;22266;52.340;4.962;2023-07-24T14:52:44;1.50;;;0.00;;